Time;durP1;ratioP1;P1;durP2;ratioP2;P2;SDS_P1;SDS_P2;PMS_P1;PMS_P2;Temp;Humidity;BMP_temperature;BMP_pressure;BME280_temperature;BME280_humidity;BME280_pressure;Samples;Min_cycle;Max_cycle;Signal;HPM_P1;HPM_P2
2023/10/07 00:02:18;;;;;;;0.90;0.70;;;8.80;98.30;;;;;;5051222;28;20197;-59
2023/10/07 00:04:44;;;;;;;0.80;0.80;;;8.70;98.40;;;;;;5051125;28;20169;-59
2023/10/07 00:07:14;;;;;;;0.98;0.85;;;8.50;98.70;;;;;;5050656;28;20192;-59
2023/10/07 00:09:45;;;;;;;1.20;1.10;;;8.50;98.50;;;;;;5050981;28;20166;-59
2023/10/07 00:12:14;;;;;;;0.73;0.73;;;8.50;98.50;;;;;;5051164;28;20570;-60
2023/10/07 00:14:43;;;;;;;3.97;0.73;;;8.40;98.70;;;;;;5051104;28;20185;-59
2023/10/07 00:17:18;;;;;;;0.88;0.57;;;8.50;98.50;;;;;;5050722;28;20177;-59
2023/10/07 00:19:45;;;;;;;0.82;0.82;;;8.50;98.40;;;;;;5050862;28;20201;-60
2023/10/07 00:22:13;;;;;;;1.20;1.08;;;8.40;98.70;;;;;;5050759;28;20214;-59
2023/10/07 00:24:48;;;;;;;0.95;0.70;;;8.40;98.70;;;;;;5050762;28;20222;-58
2023/10/07 00:27:37;;;;;;;0.88;0.60;;;8.30;98.80;;;;;;5050591;28;20211;-59
2023/10/07 00:30:12;;;;;;;1.45;0.95;;;8.30;99.10;;;;;;5050821;28;20179;-59
2023/10/07 00:32:39;;;;;;;5.07;2.25;;;8.30;98.80;;;;;;5050725;28;20201;-60
2023/10/07 00:35:06;;;;;;;3.28;1.20;;;8.40;98.60;;;;;;5050758;28;20260;-59
2023/10/07 00:37:37;;;;;;;1.40;0.60;;;8.40;98.50;;;;;;5050670;28;20591;-59
2023/10/07 00:40:31;;;;;;;0.60;0.50;;;8.50;98.70;;;;;;5050764;28;20287;-59
2023/10/07 00:42:57;;;;;;;0.63;0.63;;;8.50;98.10;;;;;;5050554;28;20182;-59
2023/10/07 00:45:25;;;;;;;0.88;0.88;;;8.50;98.20;;;;;;5050731;28;20189;-60
2023/10/07 00:47:52;;;;;;;2.30;2.20;;;8.50;98.40;;;;;;5050567;28;20162;-60
2023/10/07 00:50:22;;;;;;;0.95;0.95;;;8.40;98.50;;;;;;5051300;28;20178;-59
2023/10/07 00:52:58;;;;;;;0.73;0.73;;;8.30;98.70;;;;;;5054086;28;20619;-58
2023/10/07 00:55:34;;;;;;;0.85;0.85;;;8.20;98.90;;;;;;5054085;28;20181;-58
2023/10/07 01:00:48;;;;;;;0.90;0.90;;;8.10;99.10;;;;;;5054514;28;20591;-60
2023/10/07 01:06:31;;;;;;;3.42;2.05;;;8.10;98.90;;;;;;5053833;28;20174;-59
2023/10/07 01:08:44;;;;;;;0.50;0.50;;;8.20;98.90;;;;;;5049770;28;20217;-59
2023/10/07 01:11:20;;;;;;;0.40;0.40;;;8.20;98.60;;;;;;5053936;28;20251;-60
2023/10/07 01:13:56;;;;;;;1.73;1.63;;;8.10;98.40;;;;;;5053855;28;20700;-58
2023/10/07 01:16:34;;;;;;;1.20;1.05;;;8.00;98.60;;;;;;5053397;28;20213;-59
2023/10/07 01:21:55;;;;;;;0.60;0.50;;;8.10;98.30;;;;;;5053915;28;20243;-60
2023/10/07 01:27:06;;;;;;;0.60;0.60;;;7.90;98.50;;;;;;5053685;28;20180;-60
2023/10/07 01:29:34;;;;;;;3.60;0.88;;;8.00;98.30;;;;;;5053621;28;20200;-60
2023/10/07 01:32:00;;;;;;;3.10;1.08;;;8.00;97.90;;;;;;5053387;28;20173;-59
2023/10/07 01:34:35;;;;;;;0.70;0.60;;;8.10;97.70;;;;;;5053429;28;20176;-60
2023/10/07 01:37:05;;;;;;;0.40;0.40;;;7.90;98.00;;;;;;5052969;28;20406;-59
2023/10/07 01:39:40;;;;;;;1.25;0.88;;;7.80;97.90;;;;;;5053250;28;20690;-60
2023/10/07 01:42:14;;;;;;;0.40;0.40;;;7.70;98.20;;;;;;5053128;28;20208;-59
2023/10/07 01:44:41;;;;;;;1.25;1.15;;;7.80;98.40;;;;;;5053313;28;20172;-59
2023/10/07 01:47:23;;;;;;;0.70;0.50;;;7.80;98.10;;;;;;5052904;28;20161;-60
2023/10/07 01:49:56;;;;;;;4.75;2.28;;;7.70;98.20;;;;;;5053428;28;20268;-60
2023/10/07 01:52:26;;;;;;;1.10;1.10;;;7.70;98.50;;;;;;5052854;28;20200;-60
2023/10/07 01:54:54;;;;;;;0.70;0.65;;;7.60;98.20;;;;;;5053094;28;20242;-59
2023/10/07 01:57:20;;;;;;;0.40;0.40;;;7.70;98.00;;;;;;5052823;28;20245;-59
2023/10/07 01:59:45;;;;;;;0.50;0.50;;;7.80;97.70;;;;;;5052908;28;20245;-59
2023/10/07 02:02:13;;;;;;;1.53;1.13;;;7.80;97.40;;;;;;5051684;28;20209;-59
2023/10/07 02:04:38;;;;;;;1.27;0.75;;;7.70;97.40;;;;;;5053065;28;20207;-59
2023/10/07 02:07:04;;;;;;;0.47;0.47;;;7.70;97.70;;;;;;5052551;28;20703;-60
2023/10/07 02:09:36;;;;;;;0.50;0.50;;;7.70;97.50;;;;;;5052798;28;20252;-60
2023/10/07 02:12:08;;;;;;;0.77;0.77;;;7.70;97.50;;;;;;5052733;28;20649;-60
2023/10/07 02:14:34;;;;;;;5.57;1.30;;;7.60;97.70;;;;;;5052604;28;20259;-59
2023/10/07 02:17:00;;;;;;;1.63;1.53;;;7.60;97.50;;;;;;5052626;28;20282;-59
2023/10/07 02:19:29;;;;;;;0.60;0.60;;;7.50;97.50;;;;;;5052490;28;20509;-60
2023/10/07 02:22:03;;;;;;;0.60;0.60;;;7.50;97.70;;;;;;5052375;28;20398;-59
2023/10/07 02:24:30;;;;;;;0.75;0.73;;;7.50;97.60;;;;;;5052606;28;20180;-60
2023/10/07 02:27:16;;;;;;;0.50;0.50;;;7.40;97.60;;;;;;5052074;28;20625;-60
2023/10/07 02:29:44;;;;;;;4.13;0.82;;;7.40;97.60;;;;;;5052531;28;20661;-59
2023/10/07 02:32:14;;;;;;;0.30;0.30;;;7.50;97.50;;;;;;5052489;28;20212;-60
2023/10/07 02:34:52;;;;;;;0.90;0.90;;;7.40;97.00;;;;;;5052421;28;20179;-59
2023/10/07 02:37:22;;;;;;;0.40;0.40;;;7.40;97.00;;;;;;5050635;28;20175;-59
2023/10/07 02:39:48;;;;;;;1.77;1.15;;;7.50;96.90;;;;;;5052011;28;20287;-59
2023/10/07 02:42:24;;;;;;;0.98;0.98;;;7.40;96.70;;;;;;5052345;28;20208;-60
2023/10/07 02:45:00;;;;;;;1.23;0.40;;;7.30;96.80;;;;;;5052336;28;20173;-60
2023/10/07 02:47:27;;;;;;;0.82;0.82;;;7.40;96.50;;;;;;5051837;28;20175;-60
2023/10/07 02:49:53;;;;;;;0.82;0.50;;;7.40;96.20;;;;;;5052043;28;20187;-59
2023/10/07 02:52:19;;;;;;;0.50;0.50;;;7.40;96.00;;;;;;5052197;28;20201;-60
2023/10/07 02:54:45;;;;;;;0.93;0.65;;;7.40;95.70;;;;;;5051887;28;20263;-59
2023/10/07 02:57:24;;;;;;;0.50;0.50;;;7.30;96.00;;;;;;5051601;28;20612;-60
2023/10/07 03:00:00;;;;;;;0.50;0.50;;;7.40;96.10;;;;;;5051808;28;20189;-59
2023/10/07 03:02:48;;;;;;;1.05;1.05;;;7.30;96.20;;;;;;5107348;22;20219;-60
2023/10/07 03:05:14;;;;;;;0.50;0.50;;;7.20;96.10;;;;;;5070444;28;20200;-60
2023/10/07 03:07:49;;;;;;;0.60;0.60;;;7.20;95.80;;;;;;5071080;28;20183;-60
2023/10/07 03:10:33;;;;;;;0.40;0.40;;;7.20;95.30;;;;;;5071880;28;20180;-60
2023/10/07 03:12:59;;;;;;;0.40;0.40;;;7.30;94.10;;;;;;5071578;28;20245;-63
2023/10/07 03:15:45;;;;;;;0.30;0.30;;;7.40;93.60;;;;;;5071646;28;20205;-60
2023/10/07 03:18:30;;;;;;;1.20;0.90;;;7.40;93.60;;;;;;5071602;28;20406;-60
2023/10/07 03:21:10;;;;;;;0.70;0.57;;;7.30;94.40;;;;;;5071688;28;20238;-60
2023/10/07 03:23:45;;;;;;;1.15;0.73;;;7.30;94.90;;;;;;5071533;28;20636;-60
2023/10/07 03:26:18;;;;;;;0.40;0.40;;;7.20;95.20;;;;;;5071775;28;20202;-60
2023/10/07 03:28:54;;;;;;;1.10;1.00;;;7.20;95.30;;;;;;5071664;28;20195;-60
2023/10/07 03:31:59;;;;;;;0.80;0.80;;;7.10;95.20;;;;;;5071692;28;20186;-60
2023/10/07 03:34:15;;;;;;;2.08;1.85;;;7.10;95.50;;;;;;5066387;28;20354;-61
2023/10/07 03:36:43;;;;;;;1.10;0.83;;;7.20;95.00;;;;;;5071162;28;20260;-60
2023/10/07 03:39:26;;;;;;;4.50;1.10;;;7.30;95.10;;;;;;5071566;28;20176;-60
2023/10/07 03:41:59;;;;;;;2.17;0.63;;;7.20;95.50;;;;;;5071625;28;20173;-61
2023/10/07 03:44:25;;;;;;;0.40;0.40;;;7.20;95.80;;;;;;5071320;28;20207;-60
2023/10/07 03:46:54;;;;;;;0.60;0.60;;;7.20;96.20;;;;;;5071169;28;20175;-60
2023/10/07 03:49:27;;;;;;;0.82;0.82;;;7.20;96.10;;;;;;5071611;28;20180;-61
2023/10/07 03:52:12;;;;;;;1.73;1.60;;;7.10;96.00;;;;;;5071526;28;20262;-60
2023/10/07 03:54:41;;;;;;;0.70;0.70;;;7.00;95.90;;;;;;5071664;28;20632;-60
2023/10/07 03:57:07;;;;;;;2.80;0.95;;;7.00;96.20;;;;;;5070970;28;20262;-60
2023/10/07 03:59:39;;;;;;;4.55;0.93;;;7.00;96.40;;;;;;5071227;28;20210;-60
2023/10/07 04:05:10;;;;;;;0.40;0.40;;;7.20;96.10;;;;;;5009252;28;20663;-61
2023/10/07 04:07:37;;;;;;;0.98;0.95;;;7.10;96.10;;;;;;5059427;28;20188;-60
2023/10/07 04:12:58;;;;;;;1.20;0.52;;;7.00;96.20;;;;;;5049402;28;20287;-60
2023/10/07 04:15:30;;;;;;;3.23;1.60;;;7.10;96.50;;;;;;5071161;28;20637;-61
2023/10/07 04:17:56;;;;;;;0.85;0.40;;;7.10;96.20;;;;;;5070102;28;20179;-61
2023/10/07 04:20:24;;;;;;;2.78;1.58;;;7.20;96.10;;;;;;5071209;28;20208;-62
2023/10/07 04:23:00;;;;;;;0.93;0.93;;;7.10;95.20;;;;;;5070995;28;20251;-60
2023/10/07 04:25:27;;;;;;;0.40;0.40;;;7.10;95.00;;;;;;5071764;28;20230;-61
2023/10/07 04:28:13;;;;;;;2.50;0.63;;;7.20;95.50;;;;;;5074380;28;20664;-62
2023/10/07 04:30:39;;;;;;;0.93;0.70;;;7.20;95.80;;;;;;5074808;28;20195;-63
2023/10/07 04:33:08;;;;;;;0.77;0.77;;;7.10;96.00;;;;;;5074859;28;20192;-60
2023/10/07 04:35:34;;;;;;;0.80;0.80;;;7.00;96.30;;;;;;5074654;28;20244;-60
2023/10/07 04:38:09;;;;;;;1.27;1.17;;;7.00;96.40;;;;;;5074429;28;20180;-57
2023/10/07 04:43:35;;;;;;;0.40;0.40;;;6.90;96.50;;;;;;5074555;28;20203;-61
2023/10/07 04:46:22;;;;;;;0.75;0.75;;;6.80;96.70;;;;;;5074590;28;20630;-60
2023/10/07 04:48:54;;;;;;;2.15;1.23;;;6.90;96.80;;;;;;5074487;28;20180;-60
2023/10/07 04:54:01;;;;;;;3.28;0.80;;;7.00;97.00;;;;;;5074319;28;20210;-62
2023/10/07 04:56:32;;;;;;;4.53;1.55;;;7.10;96.00;;;;;;5074113;28;20179;-60
2023/10/07 04:59:10;;;;;;;0.88;0.88;;;7.10;94.90;;;;;;5074524;28;20171;-61
2023/10/07 05:01:41;;;;;;;8.43;0.80;;;7.20;95.10;;;;;;5074320;28;20170;-61
2023/10/07 05:04:15;;;;;;;2.35;0.93;;;7.30;95.60;;;;;;5073944;28;20221;-60
2023/10/07 05:06:42;;;;;;;1.35;1.05;;;7.10;95.90;;;;;;5073655;28;20183;-60
2023/10/07 05:09:09;;;;;;;1.27;1.27;;;7.10;96.50;;;;;;5074142;28;20259;-59
2023/10/07 05:11:43;;;;;;;2.67;2.38;;;7.00;96.80;;;;;;5074023;28;20263;-61
2023/10/07 05:14:15;;;;;;;0.55;0.55;;;6.90;96.70;;;;;;5073833;28;20241;-60
2023/10/07 05:16:41;;;;;;;1.05;0.43;;;6.90;96.80;;;;;;5073919;28;20180;-61
2023/10/07 05:19:13;;;;;;;0.50;0.50;;;6.90;96.90;;;;;;5073690;28;20271;-61
2023/10/07 05:21:38;;;;;;;0.30;0.30;;;6.80;96.70;;;;;;5073702;28;20184;-60
2023/10/07 05:24:09;;;;;;;0.70;0.70;;;6.90;96.60;;;;;;5073772;28;20677;-61
2023/10/07 05:26:35;;;;;;;0.50;0.50;;;7.00;96.00;;;;;;5073433;28;20173;-61
2023/10/07 05:29:02;;;;;;;1.57;0.60;;;7.10;95.60;;;;;;5074170;28;20182;-61
2023/10/07 05:31:30;;;;;;;0.30;0.30;;;7.00;95.00;;;;;;5073761;28;20668;-61
2023/10/07 05:33:59;;;;;;;0.88;0.88;;;7.00;94.70;;;;;;5073535;28;20205;-61
2023/10/07 05:36:30;;;;;;;0.50;0.50;;;7.00;94.90;;;;;;5073113;28;20203;-61
2023/10/07 05:38:56;;;;;;;0.60;0.60;;;6.90;94.90;;;;;;5073417;28;20185;-61
2023/10/07 05:41:25;;;;;;;0.70;0.70;;;7.00;94.90;;;;;;5073006;28;20211;-61
2023/10/07 05:43:51;;;;;;;2.25;0.95;;;7.00;94.90;;;;;;5073033;28;20214;-61
2023/10/07 05:46:20;;;;;;;1.10;0.98;;;7.00;94.90;;;;;;5072997;28;20208;-61
2023/10/07 05:48:46;;;;;;;0.40;0.40;;;6.90;94.80;;;;;;5073468;28;20171;-61
2023/10/07 05:51:12;;;;;;;0.40;0.40;;;6.90;94.20;;;;;;5073353;28;20227;-61
2023/10/07 05:53:43;;;;;;;0.77;0.77;;;7.10;93.90;;;;;;5072867;28;20198;-61
2023/10/07 05:56:10;;;;;;;0.60;0.60;;;7.10;94.10;;;;;;5072923;28;20210;-61
2023/10/07 05:58:37;;;;;;;0.40;0.40;;;7.10;94.70;;;;;;5072806;28;20213;-61
2023/10/07 06:01:08;;;;;;;1.08;0.80;;;7.10;94.60;;;;;;5071919;28;20241;-62
2023/10/07 06:03:33;;;;;;;0.98;0.70;;;6.90;94.70;;;;;;5072686;28;20218;-62
2023/10/07 06:06:01;;;;;;;1.17;1.17;;;6.90;95.30;;;;;;5072450;28;20169;-62
2023/10/07 06:08:28;;;;;;;0.50;0.50;;;6.80;94.80;;;;;;5072635;28;20183;-62
2023/10/07 06:10:57;;;;;;;2.50;0.73;;;6.90;94.60;;;;;;5072989;28;20671;-62
2023/10/07 06:13:26;;;;;;;0.68;0.60;;;7.00;94.80;;;;;;5072909;28;20206;-62
2023/10/07 06:15:56;;;;;;;0.40;0.40;;;7.00;95.10;;;;;;5072822;28;20185;-62
2023/10/07 06:18:22;;;;;;;2.58;1.02;;;7.20;94.80;;;;;;5072567;28;20187;-62
2023/10/07 06:20:52;;;;;;;1.05;0.63;;;7.30;93.80;;;;;;5072575;28;20196;-62
2023/10/07 06:23:19;;;;;;;1.45;1.33;;;7.30;93.40;;;;;;5072905;28;20543;-62
2023/10/07 06:25:49;;;;;;;0.50;0.50;;;7.30;92.80;;;;;;5072453;28;20219;-62
2023/10/07 06:31:10;;;;;;;0.60;0.60;;;7.50;92.90;;;;;;5072339;28;20246;-62
2023/10/07 06:34:11;;;;;;;1.42;1.33;;;7.60;93.10;;;;;;5072616;28;20548;-62
2023/10/07 06:36:39;;;;;;;0.85;0.85;;;7.70;93.60;;;;;;5072079;28;20651;-62
2023/10/07 06:39:10;;;;;;;1.13;1.02;;;7.70;93.90;;;;;;5072328;28;20177;-63
2023/10/07 06:41:38;;;;;;;0.40;0.40;;;7.60;93.90;;;;;;5072082;28;20212;-62
2023/10/07 06:44:08;;;;;;;0.85;0.60;;;7.60;94.10;;;;;;5072427;28;20577;-62
2023/10/07 06:46:45;;;;;;;0.60;0.60;;;7.60;94.40;;;;;;5072323;28;20208;-62
2023/10/07 06:49:16;;;;;;;0.50;0.50;;;7.60;94.70;;;;;;5071587;28;20176;-62
2023/10/07 06:51:53;;;;;;;0.60;0.60;;;7.70;94.50;;;;;;5071880;28;20184;-62
2023/10/07 06:54:19;;;;;;;2.45;0.70;;;7.80;94.20;;;;;;5071791;28;20242;-62
2023/10/07 06:56:45;;;;;;;0.40;0.40;;;8.50;95.30;;;;;;5070612;28;20635;-63
2023/10/07 06:59:13;;;;;;;0.80;0.50;;;9.90;91.20;;;;;;5071833;28;20181;-63
2023/10/07 07:04:11;;;;;;;3.27;0.77;;;13.80;74.20;;;;;;5070951;28;20473;-63
2023/10/07 07:06:44;;;;;;;0.40;0.40;;;16.20;65.40;;;;;;5071434;28;20974;-63
2023/10/07 07:12:08;;;;;;;1.63;0.63;;;19.20;48.80;;;;;;5071720;28;20418;-62
2023/10/07 07:14:34;;;;;;;1.03;0.93;;;20.30;45.70;;;;;;5072182;28;20428;-63
2023/10/07 07:20:19;;;;;;;1.57;1.10;;;20.50;50.30;;;;;;5071947;28;20208;-63
2023/10/07 07:22:42;;;;;;;1.57;0.93;;;20.50;49.90;;;;;;5071447;28;20440;-63
2023/10/07 07:25:17;;;;;;;1.43;1.07;;;20.60;49.10;;;;;;5070732;28;21031;-62
2023/10/07 07:27:48;;;;;;;0.70;0.70;;;20.40;45.40;;;;;;5071166;28;20749;-63
2023/10/07 07:30:29;;;;;;;1.27;0.87;;;20.90;45.00;;;;;;5070971;28;20394;-63
2023/10/07 07:32:55;;;;;;;1.03;0.80;;;22.10;45.40;;;;;;5070584;28;20432;-63
2023/10/07 07:35:38;;;;;;;1.00;0.63;;;23.70;42.60;;;;;;5069658;28;21003;-63
2023/10/07 07:43:47;;;;;;;1.87;1.20;;;26.40;39.90;;;;;;5017879;28;20920;-64
2023/10/07 07:48:43;;;;;;;1.93;1.27;;;26.40;36.20;;;;;;5070670;28;20176;-63
2023/10/07 07:51:09;;;;;;;1.67;1.20;;;26.10;36.00;;;;;;5071139;28;20786;-63
2023/10/07 07:53:35;;;;;;;2.40;2.20;;;25.70;36.20;;;;;;5070786;28;20440;-63
2023/10/07 07:56:02;;;;;;;1.80;1.47;;;25.80;36.80;;;;;;5071223;28;20418;-63
2023/10/07 07:58:28;;;;;;;2.93;2.00;;;26.10;38.30;;;;;;5071077;28;20222;-63
2023/10/07 08:01:05;;;;;;;1.43;1.17;;;26.40;39.60;;;;;;5072961;28;20451;-63
2023/10/07 08:03:35;;;;;;;1.53;1.07;;;26.80;39.60;;;;;;5075246;28;20462;-63
2023/10/07 08:06:04;;;;;;;1.77;1.13;;;27.40;38.50;;;;;;5075135;28;20416;-63
2023/10/07 08:08:36;;;;;;;1.47;1.07;;;28.40;35.20;;;;;;5075116;28;20422;-61
2023/10/07 08:11:02;;;;;;;2.73;1.07;;;29.20;33.50;;;;;;5074656;28;20502;-61
2023/10/07 08:13:28;;;;;;;1.30;1.20;;;29.50;34.70;;;;;;5074967;28;20442;-64
2023/10/07 08:15:55;;;;;;;5.73;3.60;;;29.40;35.60;;;;;;5074563;28;20403;-64
2023/10/07 08:18:22;;;;;;;4.90;3.13;;;30.00;34.80;;;;;;5075009;28;20172;-61
2023/10/07 08:20:56;;;;;;;3.90;2.00;;;30.50;33.90;;;;;;5074961;28;20459;-61
2023/10/07 08:23:28;;;;;;;2.43;1.17;;;29.60;33.80;;;;;;5074612;28;20423;-61
2023/10/07 08:26:10;;;;;;;1.63;1.00;;;28.80;34.50;;;;;;5074541;28;20908;-63
2023/10/07 08:28:47;;;;;;;2.20;1.30;;;28.90;32.60;;;;;;5074665;28;20786;-63
2023/10/07 08:33:41;;;;;;;2.43;1.80;;;30.10;32.40;;;;;;5074546;28;20431;-61
2023/10/07 08:36:08;;;;;;;4.90;1.57;;;31.00;31.90;;;;;;5074674;28;20908;-61
2023/10/07 08:38:38;;;;;;;3.67;1.20;;;31.60;31.70;;;;;;5074656;28;20564;-61
2023/10/07 08:41:04;;;;;;;2.23;1.47;;;31.20;33.30;;;;;;5074529;28;20550;-61
2023/10/07 08:43:37;;;;;;;1.23;0.70;;;30.10;33.50;;;;;;5074527;28;20499;-60
2023/10/07 08:46:08;;;;;;;2.57;1.37;;;28.90;35.40;;;;;;5074407;28;20410;-61
2023/10/07 08:48:38;;;;;;;2.87;1.33;;;27.70;36.50;;;;;;5074353;28;20656;-60
2023/10/07 08:51:14;;;;;;;6.23;1.20;;;26.40;39.10;;;;;;5074345;28;20403;-61
2023/10/07 08:53:40;;;;;;;2.80;1.63;;;26.10;41.10;;;;;;5074148;28;20991;-61
2023/10/07 08:56:10;;;;;;;2.20;1.20;;;27.30;39.10;;;;;;5074147;28;20468;-61
2023/10/07 08:58:41;;;;;;;2.13;1.60;;;28.10;36.40;;;;;;5073999;28;20912;-61
2023/10/07 09:01:17;;;;;;;2.30;1.20;;;28.30;36.70;;;;;;5074182;28;21027;-61
2023/10/07 09:03:47;;;;;;;2.43;1.63;;;28.40;37.50;;;;;;5074163;28;20528;-63
2023/10/07 09:06:13;;;;;;;2.80;1.50;;;28.10;38.50;;;;;;5074101;28;20411;-63
2023/10/07 09:08:38;;;;;;;2.47;1.47;;;27.30;39.60;;;;;;5074599;28;20419;-61
2023/10/07 09:11:08;;;;;;;5.90;1.57;;;26.30;40.10;;;;;;5073636;28;20408;-60
2023/10/07 09:13:38;;;;;;;4.20;1.70;;;25.20;41.50;;;;;;5073674;28;20201;-63
2023/10/07 09:16:07;;;;;;;1.53;1.27;;;24.30;42.90;;;;;;5073674;28;20439;-63
2023/10/07 09:18:39;;;;;;;1.30;1.20;;;23.60;46.60;;;;;;5073958;28;20387;-63
2023/10/07 09:21:09;;;;;;;1.37;1.10;;;23.60;47.00;;;;;;5073781;28;20451;-63
2023/10/07 09:23:43;;;;;;;5.80;1.30;;;24.70;46.70;;;;;;5073734;28;20955;-61
2023/10/07 09:26:30;;;;;;;1.30;0.90;;;26.40;43.90;;;;;;5073566;28;20410;-62
2023/10/07 09:29:08;;;;;;;2.00;1.80;;;28.20;40.10;;;;;;5073747;28;20414;-61
2023/10/07 09:31:35;;;;;;;1.43;1.33;;;29.10;39.30;;;;;;5073624;28;20928;-61
2023/10/07 09:34:10;;;;;;;3.33;1.63;;;29.90;38.10;;;;;;5073598;28;20976;-61
2023/10/07 09:36:40;;;;;;;1.93;1.57;;;30.70;36.20;;;;;;5073163;28;20419;-61
2023/10/07 09:39:33;;;;;;;2.67;1.50;;;30.40;35.40;;;;;;5073502;28;20447;-61
2023/10/07 09:42:03;;;;;;;1.50;1.30;;;29.30;36.50;;;;;;5073150;28;20415;-61
2023/10/07 09:44:37;;;;;;;4.47;1.60;;;27.80;38.00;;;;;;5073436;28;20427;-61
2023/10/07 09:47:09;;;;;;;2.30;1.30;;;26.00;40.70;;;;;;5072929;28;20405;-61
2023/10/07 09:49:36;;;;;;;1.90;1.73;;;24.70;42.30;;;;;;5073571;28;20404;-61
2023/10/07 09:52:17;;;;;;;1.77;1.13;;;23.70;43.60;;;;;;5073079;28;20784;-61
2023/10/07 09:55:19;;;;;;;1.90;0.93;;;23.00;45.10;;;;;;5073237;28;20441;-61
2023/10/07 09:58:00;;;;;;;1.73;1.27;;;22.60;45.90;;;;;;5073082;28;20465;-61
2023/10/07 10:00:38;;;;;;;1.50;1.23;;;22.10;46.20;;;;;;5072767;28;20430;-61
2023/10/07 10:03:20;;;;;;;2.23;1.20;;;21.90;47.50;;;;;;5072842;28;20442;-63
2023/10/07 10:06:16;;;;;;;4.40;2.03;;;22.60;47.20;;;;;;5072654;28;20473;-63
2023/10/07 10:08:58;;;;;;;1.70;0.93;;;23.30;45.90;;;;;;5072866;28;20410;-63
2023/10/07 10:11:31;;;;;;;2.30;1.20;;;23.30;45.10;;;;;;5072514;28;20465;-63
2023/10/07 10:17:11;;;;;;;5.10;2.30;;;23.70;45.20;;;;;;5072775;28;20467;-63
2023/10/07 10:19:49;;;;;;;2.23;1.10;;;24.40;45.00;;;;;;5072641;28;20386;-63
2023/10/07 10:22:22;;;;;;;1.70;1.60;;;24.90;43.90;;;;;;5072385;28;20377;-63
2023/10/07 10:24:54;;;;;;;2.00;1.30;;;25.00;43.90;;;;;;5072424;28;20901;-63
2023/10/07 10:27:20;;;;;;;2.70;1.80;;;25.00;44.00;;;;;;5072302;28;20387;-63
2023/10/07 10:29:55;;;;;;;1.70;1.60;;;24.90;44.30;;;;;;5072607;28;20768;-63
2023/10/07 10:32:28;;;;;;;2.33;2.20;;;24.90;44.70;;;;;;5072425;28;20377;-61
2023/10/07 10:35:06;;;;;;;3.10;1.13;;;25.20;44.30;;;;;;5072254;28;20386;-61
2023/10/07 10:37:32;;;;;;;1.20;1.10;;;25.50;43.50;;;;;;5072114;28;20395;-61
2023/10/07 10:40:09;;;;;;;4.13;1.80;;;25.70;44.40;;;;;;5072116;28;20448;-61
2023/10/07 10:42:47;;;;;;;1.03;0.90;;;25.60;47.00;;;;;;5071995;28;20829;-61
2023/10/07 10:45:24;;;;;;;3.00;1.60;;;25.60;42.50;;;;;;5072157;28;20412;-61
2023/10/07 10:47:52;;;;;;;2.63;0.80;;;25.50;42.40;;;;;;5071947;28;20407;-61
2023/10/07 10:50:23;;;;;;;1.20;0.90;;;25.50;41.90;;;;;;5071696;28;20382;-61
2023/10/07 10:52:54;;;;;;;2.87;1.70;;;25.20;47.10;;;;;;5072089;28;20824;-61
2023/10/07 10:55:19;;;;;;;2.43;1.43;;;24.60;45.60;;;;;;5071956;28;20412;-61
2023/10/07 10:57:45;;;;;;;4.43;1.60;;;24.30;49.00;;;;;;5071660;28;20384;-60
2023/10/07 11:00:22;;;;;;;2.67;1.50;;;23.90;45.30;;;;;;5071436;28;20465;-61
2023/10/07 11:02:53;;;;;;;1.10;0.73;;;23.60;42.00;;;;;;5071474;28;20286;-61
2023/10/07 11:05:20;;;;;;;4.73;1.10;;;23.50;38.90;;;;;;5071852;28;20408;-61
2023/10/07 11:07:48;;;;;;;1.50;1.00;;;23.60;40.10;;;;;;5071583;28;20404;-61
2023/10/07 11:10:22;;;;;;;1.60;1.00;;;23.50;39.70;;;;;;5071714;28;20771;-61
2023/10/07 11:12:56;;;;;;;1.33;0.80;;;23.50;40.60;;;;;;5071887;28;20419;-61
2023/10/07 11:15:26;;;;;;;1.20;1.13;;;23.60;40.10;;;;;;5071372;28;20378;-61
2023/10/07 11:18:07;;;;;;;0.80;0.80;;;23.50;36.80;;;;;;5071382;28;20928;-61
2023/10/07 11:20:39;;;;;;;3.97;1.90;;;23.30;47.70;;;;;;5070006;28;20841;-61
2023/10/07 11:23:06;;;;;;;1.10;1.00;;;23.00;44.80;;;;;;5071471;28;20410;-61
2023/10/07 11:25:33;;;;;;;0.67;0.67;;;22.80;40.20;;;;;;5071458;28;20802;-61
2023/10/07 11:27:59;;;;;;;0.70;0.60;;;22.90;38.80;;;;;;5071215;28;20416;-61
2023/10/07 11:30:25;;;;;;;2.20;1.33;;;22.90;41.00;;;;;;5071619;28;20879;-61
2023/10/07 11:32:51;;;;;;;3.37;1.57;;;22.90;42.70;;;;;;5071463;28;20223;-61
2023/10/07 11:35:19;;;;;;;0.70;0.70;;;23.00;41.10;;;;;;5071103;28;20506;-61
2023/10/07 11:37:58;;;;;;;3.83;1.13;;;22.70;47.60;;;;;;5071097;28;20414;-61
2023/10/07 11:40:25;;;;;;;1.37;0.70;;;22.30;41.50;;;;;;5071477;28;20508;-61
2023/10/07 11:42:52;;;;;;;1.07;0.87;;;22.10;45.80;;;;;;5071306;28;20510;-61
2023/10/07 11:45:22;;;;;;;1.80;1.50;;;22.20;44.50;;;;;;5071211;28;20405;-61
2023/10/07 11:47:48;;;;;;;3.93;1.47;;;22.30;43.50;;;;;;5070793;28;20924;-61
2023/10/07 11:50:16;;;;;;;1.03;0.90;;;22.40;47.20;;;;;;5071671;28;20483;-61
2023/10/07 11:52:42;;;;;;;1.47;1.37;;;22.40;48.70;;;;;;5071320;28;20483;-61
2023/10/07 11:55:09;;;;;;;7.00;1.00;;;22.30;48.70;;;;;;5071405;28;20776;-61
2023/10/07 11:57:38;;;;;;;2.07;1.00;;;22.10;48.90;;;;;;5070959;28;20415;-60
2023/10/07 12:00:10;;;;;;;2.30;1.50;;;21.90;44.80;;;;;;5071017;28;20537;-61
2023/10/07 12:02:35;;;;;;;1.23;0.70;;;22.00;50.30;;;;;;5070825;28;20411;-61
2023/10/07 12:05:04;;;;;;;1.90;1.20;;;22.00;46.90;;;;;;5071280;28;20548;-61
2023/10/07 12:07:30;;;;;;;6.87;1.57;;;21.80;43.80;;;;;;5071222;28;20207;-61
2023/10/07 12:09:56;;;;;;;3.63;1.10;;;21.80;41.70;;;;;;5071148;28;20477;-61
2023/10/07 12:12:22;;;;;;;7.97;1.97;;;21.80;49.30;;;;;;5071049;28;20169;-61
2023/10/07 12:14:48;;;;;;;1.07;1.00;;;21.80;43.00;;;;;;5071105;28;20176;-61
2023/10/07 12:17:16;;;;;;;2.90;1.20;;;21.70;47.20;;;;;;5070596;28;20758;-61
2023/10/07 12:19:43;;;;;;;1.27;1.10;;;21.70;48.10;;;;;;5071160;28;20180;-61
2023/10/07 12:22:09;;;;;;;1.27;0.80;;;21.60;49.30;;;;;;5071128;28;20414;-61
2023/10/07 12:24:35;;;;;;;1.03;0.80;;;21.60;47.40;;;;;;5070974;28;20425;-61
2023/10/07 12:27:01;;;;;;;3.63;1.27;;;21.60;46.50;;;;;;5070806;28;20209;-61
2023/10/07 12:29:28;;;;;;;1.50;1.37;;;21.70;48.30;;;;;;5071048;28;20173;-61
2023/10/07 12:31:53;;;;;;;3.90;1.57;;;21.80;49.00;;;;;;5070840;28;20905;-61
2023/10/07 12:34:20;;;;;;;2.70;1.30;;;21.80;47.30;;;;;;5070820;28;20455;-60
2023/10/07 12:36:52;;;;;;;1.37;0.60;;;21.80;46.30;;;;;;5070286;28;20173;-61
2023/10/07 12:39:21;;;;;;;1.37;0.90;;;21.90;45.30;;;;;;5069874;28;20419;-61
2023/10/07 12:41:47;;;;;;;1.63;0.97;;;22.00;42.70;;;;;;5069940;28;20476;-61
2023/10/07 12:44:13;;;;;;;2.30;1.00;;;21.90;43.00;;;;;;5069662;28;20426;-61
2023/10/07 12:46:41;;;;;;;2.00;1.30;;;21.70;46.60;;;;;;5071000;28;20409;-61
2023/10/07 12:49:11;;;;;;;3.03;1.50;;;21.70;43.90;;;;;;5073766;28;20411;-61
2023/10/07 12:51:46;;;;;;;1.40;0.90;;;21.70;45.20;;;;;;5073876;28;20925;-61
2023/10/07 12:54:12;;;;;;;2.53;1.77;;;21.70;41.90;;;;;;5074043;28;20442;-61
2023/10/07 12:56:45;;;;;;;0.70;0.70;;;21.70;38.30;;;;;;5073873;28;20421;-61
2023/10/07 12:59:23;;;;;;;2.20;1.10;;;21.60;42.80;;;;;;5074274;28;20413;-61
2023/10/07 13:01:51;;;;;;;4.73;1.17;;;21.40;46.30;;;;;;5074342;28;20625;-61
2023/10/07 13:04:25;;;;;;;2.97;1.30;;;21.30;45.20;;;;;;5073814;28;20443;-61
2023/10/07 13:07:00;;;;;;;1.77;1.20;;;21.00;44.80;;;;;;5073874;28;20413;-61
2023/10/07 13:09:30;;;;;;;3.23;0.73;;;20.80;44.70;;;;;;5074175;28;20462;-60
2023/10/07 13:11:57;;;;;;;3.80;1.17;;;20.40;46.10;;;;;;5074085;28;20396;-61
2023/10/07 13:14:26;;;;;;;2.30;0.80;;;20.30;47.80;;;;;;5074051;28;20879;-61
2023/10/07 13:16:59;;;;;;;2.27;1.77;;;20.30;48.60;;;;;;5074028;28;20916;-60
2023/10/07 13:19:26;;;;;;;2.23;0.90;;;20.30;48.40;;;;;;5073925;28;20408;-61
2023/10/07 13:21:59;;;;;;;1.50;1.03;;;20.10;51.90;;;;;;5073772;28;20493;-61
2023/10/07 13:24:25;;;;;;;2.13;1.90;;;20.00;48.70;;;;;;5073598;28;20965;-61
2023/10/07 13:26:50;;;;;;;1.40;1.30;;;20.00;49.20;;;;;;5073580;28;20415;-61
2023/10/07 13:29:16;;;;;;;0.90;0.53;;;19.90;50.50;;;;;;5073282;28;20414;-60
2023/10/07 13:31:42;;;;;;;1.50;1.20;;;19.90;48.00;;;;;;5073288;28;20201;-61
2023/10/07 13:34:07;;;;;;;1.73;1.47;;;19.80;51.40;;;;;;5073464;28;20181;-60
2023/10/07 13:36:37;;;;;;;2.20;1.43;;;19.60;51.40;;;;;;5073484;28;20175;-61
2023/10/07 13:39:04;;;;;;;1.33;0.57;;;19.40;52.20;;;;;;5073631;28;20233;-61
2023/10/07 13:41:30;;;;;;;1.23;1.10;;;19.30;51.00;;;;;;5073605;28;20463;-61
2023/10/07 13:43:55;;;;;;;1.20;1.10;;;19.30;51.70;;;;;;5073438;28;21063;-61
2023/10/07 13:46:21;;;;;;;1.60;0.77;;;19.30;52.30;;;;;;5073202;28;20643;-61
2023/10/07 13:48:47;;;;;;;2.47;1.23;;;19.20;52.10;;;;;;5073301;28;20169;-60
2023/10/07 13:51:12;;;;;;;1.60;1.07;;;19.20;46.20;;;;;;5073364;28;20183;-61
2023/10/07 13:56:45;;;;;;;0.60;0.60;;;19.40;52.00;;;;;;5073014;28;20263;-61
2023/10/07 13:59:11;;;;;;;2.70;1.10;;;19.30;52.90;;;;;;5071970;28;20888;-61
2023/10/07 14:01:37;;;;;;;3.60;1.23;;;19.20;51.20;;;;;;5072961;28;20545;-61
2023/10/07 14:04:03;;;;;;;1.30;1.20;;;19.10;53.20;;;;;;5072557;28;20963;-60